Time;durP1;ratioP1;P1;durP2;ratioP2;P2;SDS_P1;SDS_P2;PMS_P1;PMS_P2;Temp;Humidity;BMP_temperature;BMP_pressure;BME280_temperature;BME280_humidity;BME280_pressure;Samples;Min_cycle;Max_cycle;Signal;HPM_P1;HPM_P2
2022/08/27 00:00:58;;;;;;;1.07;0.83;;;23.10;99.90;;;;;;5000448;28;20274;-94
2022/08/27 00:03:35;;;;;;;1.30;1.00;;;22.90;99.90;;;;;;5009046;28;20206;-94
2022/08/27 00:06:08;;;;;;;2.47;0.90;;;23.00;99.90;;;;;;5017851;28;20206;-94
2022/08/27 00:08:39;;;;;;;2.47;1.00;;;22.70;99.90;;;;;;5018182;28;20296;-94
2022/08/27 00:11:11;;;;;;;1.27;1.00;;;22.60;99.90;;;;;;5019428;28;20263;-94
2022/08/27 00:13:44;;;;;;;2.20;1.10;;;22.60;99.90;;;;;;5016368;28;20205;-93
2022/08/27 00:16:33;;;;;;;2.00;0.90;;;22.40;99.90;;;;;;5023976;28;20244;-94
2022/08/27 00:30:06;;;;;;;2.97;1.00;;;22.30;99.90;;;;;;5029663;28;20227;-93
2022/08/27 00:32:45;;;;;;;1.77;1.20;;;22.20;99.90;;;;;;5031119;28;20222;-92
2022/08/27 00:38:22;;;;;;;1.37;0.90;;;22.00;99.90;;;;;;5032321;28;20209;-92
2022/08/27 00:53:28;;;;;;;1.20;0.90;;;21.50;99.90;;;;;;5030818;28;20210;-92
2022/08/27 01:09:32;;;;;;;2.17;1.00;;;21.60;99.90;;;;;;5036875;28;20190;-92
2022/08/27 01:12:24;;;;;;;1.87;0.90;;;21.50;99.90;;;;;;5036712;28;20201;-92
2022/08/27 01:15:00;;;;;;;1.30;1.20;;;21.40;99.90;;;;;;5034075;28;20193;-93
2022/08/27 01:17:41;;;;;;;2.33;1.00;;;21.30;99.90;;;;;;5029614;28;20213;-91
2022/08/27 01:45:12;;;;;;;3.57;1.00;;;21.40;99.90;;;;;;5027655;28;20281;-93
2022/08/27 01:47:53;;;;;;;3.40;1.40;;;21.40;99.90;;;;;;5031570;28;20209;-95
2022/08/27 01:50:27;;;;;;;2.20;1.07;;;21.40;99.90;;;;;;5033850;28;20201;-94
2022/08/27 01:53:23;;;;;;;1.50;0.80;;;21.40;99.90;;;;;;5035198;28;20316;-92
2022/08/27 01:55:58;;;;;;;2.23;1.10;;;21.40;99.90;;;;;;5033411;28;20234;-93
2022/08/27 02:02:03;;;;;;;1.03;0.80;;;21.60;99.90;;;;;;5035225;28;20219;-91
2022/08/27 02:04:52;;;;;;;5.07;1.20;;;21.70;99.90;;;;;;5038641;28;20229;-93
2022/08/27 02:10:12;;;;;;;1.67;0.80;;;21.70;99.90;;;;;;5038088;28;20197;-93
2022/08/27 02:12:48;;;;;;;1.43;0.90;;;21.50;99.90;;;;;;5036609;28;20231;-94
2022/08/27 02:15:21;;;;;;;1.60;0.90;;;21.50;99.90;;;;;;5037404;28;20333;-93
2022/08/27 02:18:00;;;;;;;1.27;0.87;;;21.50;99.90;;;;;;5036492;28;20208;-93
2022/08/27 02:20:35;;;;;;;1.07;0.80;;;21.50;99.90;;;;;;5032535;28;20205;-94
2022/08/27 02:23:13;;;;;;;1.90;1.00;;;21.50;99.90;;;;;;5031684;28;20229;-94
2022/08/27 02:26:02;;;;;;;1.00;0.80;;;21.30;99.90;;;;;;5004294;28;20207;-94
2022/08/27 02:28:36;;;;;;;0.90;0.70;;;21.30;99.90;;;;;;4991321;28;20675;-94
2022/08/27 02:38:16;;;;;;;1.23;0.90;;;21.30;99.90;;;;;;4992642;28;20206;-94
2022/08/27 02:40:58;;;;;;;2.70;0.80;;;21.30;99.90;;;;;;4990968;28;20222;-93
2022/08/27 02:43:34;;;;;;;2.53;0.70;;;21.40;99.90;;;;;;4990557;28;20223;-94
2022/08/27 02:46:20;;;;;;;2.30;0.90;;;21.40;99.90;;;;;;5010182;28;20264;-93
2022/08/27 02:49:01;;;;;;;2.13;0.87;;;21.30;99.90;;;;;;5013042;28;20306;-94
2022/08/27 02:59:57;;;;;;;1.90;1.03;;;21.20;99.90;;;;;;5049581;28;20335;-92
2022/08/27 03:02:36;;;;;;;4.00;1.10;;;21.20;99.90;;;;;;5051236;28;20236;-93
2022/08/27 03:05:12;;;;;;;2.50;1.00;;;21.20;99.90;;;;;;5050611;28;20211;-93
2022/08/27 03:10:38;;;;;;;1.27;1.00;;;21.20;99.90;;;;;;5051076;28;20259;-92
2022/08/27 03:13:11;;;;;;;1.60;0.90;;;21.20;99.90;;;;;;5050529;28;20286;-93
2022/08/27 03:16:02;;;;;;;2.13;0.83;;;21.10;99.90;;;;;;5049041;28;20209;-93
2022/08/27 03:18:35;;;;;;;0.90;0.90;;;21.20;99.90;;;;;;5050112;28;20238;-93
2022/08/27 03:21:27;;;;;;;2.57;1.00;;;21.20;99.90;;;;;;5052059;28;20239;-92
2022/08/27 03:24:04;;;;;;;1.53;0.93;;;21.10;99.90;;;;;;5050735;28;20209;-92
2022/08/27 03:26:49;;;;;;;1.83;0.80;;;21.20;99.90;;;;;;5029094;28;20284;-92
2022/08/27 03:29:26;;;;;;;2.27;0.90;;;21.10;99.90;;;;;;5031349;28;20684;-93
2022/08/27 03:32:27;;;;;;;4.07;1.20;;;21.20;99.90;;;;;;5029840;28;20201;-92
2022/08/27 03:35:00;;;;;;;1.53;1.10;;;21.10;99.90;;;;;;5030831;28;20216;-93
2022/08/27 03:40:20;;;;;;;1.37;1.10;;;21.10;99.90;;;;;;5029898;28;20248;-93
2022/08/27 03:42:56;;;;;;;1.17;0.93;;;21.10;99.90;;;;;;5030547;28;20206;-93
2022/08/27 03:48:47;;;;;;;4.00;1.17;;;21.10;99.90;;;;;;5030901;28;20237;-92
2022/08/27 03:54:33;;;;;;;2.77;1.07;;;21.00;99.90;;;;;;5033490;28;20212;-92
2022/08/27 03:57:13;;;;;;;1.37;0.90;;;21.00;99.90;;;;;;5032626;28;20209;-92
2022/08/27 04:00:11;;;;;;;1.30;1.07;;;21.00;99.90;;;;;;5028099;28;20206;-91
2022/08/27 04:02:46;;;;;;;2.43;1.20;;;21.00;99.90;;;;;;5027572;28;20229;-92
2022/08/27 04:05:36;;;;;;;1.83;1.20;;;21.00;99.90;;;;;;5028288;28;20212;-92
2022/08/27 04:08:08;;;;;;;1.63;1.10;;;21.00;99.90;;;;;;5029286;28;20289;-92
2022/08/27 04:13:37;;;;;;;2.20;0.80;;;21.00;99.90;;;;;;5048120;28;20658;-93
2022/08/27 04:18:58;;;;;;;1.00;0.90;;;20.80;99.90;;;;;;5047742;28;20213;-93
2022/08/27 04:21:48;;;;;;;2.23;0.70;;;20.80;99.90;;;;;;5046908;28;20224;-92
2022/08/27 04:47:16;;;;;;;2.37;0.70;;;20.50;99.90;;;;;;5109177;22;20296;-94
2022/08/27 04:50:02;;;;;;;1.20;0.90;;;20.50;99.90;;;;;;5055445;28;20236;-94
2022/08/27 04:55:26;;;;;;;1.13;0.80;;;20.30;99.90;;;;;;5495108;22;20240;-94
2022/08/27 04:58:13;;;;;;;1.47;0.80;;;20.20;99.90;;;;;;5058622;28;20196;-93
2022/08/27 05:11:36;;;;;;;1.00;0.90;;;19.90;99.90;;;;;;5505739;22;20243;-94
2022/08/27 05:14:11;;;;;;;0.70;0.70;;;19.90;99.90;;;;;;5059402;28;20273;-93
2022/08/27 05:16:46;;;;;;;1.53;0.97;;;19.90;99.90;;;;;;5059209;28;20193;-94
2022/08/27 05:19:19;;;;;;;2.10;1.00;;;19.90;99.90;;;;;;5060007;28;20211;-93
2022/08/27 05:27:11;;;;;;;1.90;0.93;;;19.80;99.90;;;;;;5038079;28;20231;-93
2022/08/27 05:29:57;;;;;;;1.70;1.00;;;19.70;99.90;;;;;;5039804;28;20226;-92
2022/08/27 05:35:23;;;;;;;3.43;1.00;;;19.50;99.90;;;;;;5518286;22;20229;-93
2022/08/27 05:44:01;;;;;;;2.53;1.10;;;19.50;99.90;;;;;;5093482;28;20244;-93
2022/08/27 06:05:49;;;;;;;2.63;1.40;;;18.80;99.90;;;;;;5052968;28;20216;-94
2022/08/27 06:08:33;;;;;;;2.70;1.25;;;18.70;99.90;;;;;;5046748;28;20201;-94
2022/08/27 06:11:07;;;;;;;2.57;1.20;;;18.70;99.90;;;;;;5043688;28;20517;-92
2022/08/27 06:13:40;;;;;;;4.57;1.30;;;18.70;99.90;;;;;;5044711;28;20553;-92
2022/08/27 06:16:19;;;;;;;2.43;1.23;;;18.50;99.90;;;;;;5048594;28;20197;-91
2022/08/27 06:19:03;;;;;;;3.37;1.20;;;18.40;99.90;;;;;;5046679;28;20209;-91
2022/08/27 06:21:37;;;;;;;2.47;1.20;;;18.40;99.90;;;;;;5046889;28;20251;-92
2022/08/27 06:24:10;;;;;;;2.30;1.27;;;18.20;99.90;;;;;;5045845;28;20213;-92
2022/08/27 06:26:41;;;;;;;5.47;1.57;;;18.10;99.90;;;;;;5047714;28;20611;-92
2022/08/27 06:29:13;;;;;;;1.90;1.20;;;18.10;99.90;;;;;;5045679;28;20311;-92
2022/08/27 06:31:49;;;;;;;3.03;1.40;;;18.00;99.90;;;;;;5043019;28;20205;-91
2022/08/27 06:34:20;;;;;;;3.00;1.30;;;17.90;99.90;;;;;;5045102;28;20287;-92
2022/08/27 06:36:53;;;;;;;3.63;1.40;;;17.90;99.90;;;;;;5041344;28;20223;-92
2022/08/27 06:39:25;;;;;;;2.63;1.33;;;17.90;99.90;;;;;;5043283;28;20189;-92
2022/08/27 06:44:59;;;;;;;2.97;1.33;;;17.70;99.90;;;;;;5052103;28;20209;-92
2022/08/27 06:47:33;;;;;;;4.70;1.43;;;17.70;99.90;;;;;;5047272;28;20283;-91
2022/08/27 06:50:06;;;;;;;2.40;1.40;;;17.60;99.90;;;;;;5039190;28;20229;-91
2022/08/27 06:53:03;;;;;;;3.97;1.80;;;17.70;99.90;;;;;;5043571;28;20193;-91
2022/08/27 06:55:45;;;;;;;3.13;1.30;;;17.80;99.90;;;;;;5048989;28;20201;-95
2022/08/27 06:58:19;;;;;;;1.80;1.03;;;17.80;99.90;;;;;;5038694;28;20204;-92
2022/08/27 07:00:50;;;;;;;2.33;1.20;;;17.70;99.90;;;;;;5038484;28;20220;-92
2022/08/27 07:03:21;;;;;;;3.67;1.70;;;17.80;99.90;;;;;;5037686;28;20201;-91
2022/08/27 07:05:53;;;;;;;3.43;1.27;;;17.70;99.90;;;;;;5043967;28;20273;-92
2022/08/27 07:08:26;;;;;;;4.40;1.17;;;17.70;99.90;;;;;;5044587;28;20232;-92
2022/08/27 07:10:59;;;;;;;1.30;0.97;;;17.40;99.90;;;;;;5038905;28;20268;-93
2022/08/27 07:16:35;;;;;;;1.53;1.00;;;17.40;99.90;;;;;;5016597;28;20245;-92
2022/08/27 07:19:10;;;;;;;3.60;1.20;;;17.40;99.90;;;;;;5012337;28;20245;-93
2022/08/27 07:21:41;;;;;;;1.20;0.93;;;17.50;99.90;;;;;;5003930;28;20206;-92
2022/08/27 07:24:14;;;;;;;3.80;1.00;;;17.30;99.90;;;;;;4999422;28;20293;-91
2022/08/27 07:26:46;;;;;;;2.80;0.87;;;17.30;99.90;;;;;;5000101;28;20217;-92
2022/08/27 07:29:17;;;;;;;1.73;0.93;;;17.20;99.90;;;;;;4998608;28;20265;-92
2022/08/27 07:31:49;;;;;;;3.37;1.30;;;17.20;99.90;;;;;;4997888;28;20213;-92
2022/08/27 07:34:21;;;;;;;1.80;1.10;;;17.30;99.90;;;;;;4999550;28;20229;-93
2022/08/27 07:36:53;;;;;;;4.40;1.20;;;17.40;99.90;;;;;;4998234;28;20225;-93
2022/08/27 07:39:26;;;;;;;2.07;1.10;;;17.10;99.90;;;;;;4998413;28;20224;-92
2022/08/27 07:44:48;;;;;;;2.17;1.30;;;17.00;99.90;;;;;;5003956;28;20678;-93
2022/08/27 07:47:20;;;;;;;4.07;1.60;;;16.90;99.90;;;;;;5017690;28;20213;-93
2022/08/27 07:49:53;;;;;;;1.70;1.20;;;16.80;99.90;;;;;;5017244;28;20233;-93
2022/08/27 07:52:26;;;;;;;3.07;1.27;;;16.80;99.90;;;;;;5017054;28;20225;-93
2022/08/27 07:55:00;;;;;;;3.93;1.23;;;16.80;99.90;;;;;;5017826;28;20221;-93
2022/08/27 07:57:33;;;;;;;2.47;1.03;;;16.90;99.90;;;;;;5017361;28;20289;-92
2022/08/27 08:00:05;;;;;;;3.70;1.10;;;16.90;99.90;;;;;;5017091;28;20210;-92
2022/08/27 08:02:35;;;;;;;2.30;1.10;;;16.90;99.90;;;;;;5016500;28;20205;-92
2022/08/27 08:05:08;;;;;;;3.30;1.30;;;16.90;99.90;;;;;;5017647;28;20216;-92
2022/08/27 08:07:40;;;;;;;4.07;1.20;;;16.90;99.90;;;;;;5017745;28;20316;-93
2022/08/27 08:10:14;;;;;;;4.63;1.80;;;16.80;99.90;;;;;;5016843;28;20268;-93
2022/08/27 08:12:44;;;;;;;1.83;1.10;;;16.90;99.90;;;;;;5016588;28;20202;-93
2022/08/27 08:15:17;;;;;;;4.00;1.20;;;16.70;99.90;;;;;;5007276;28;20238;-94
2022/08/27 08:17:48;;;;;;;5.17;1.30;;;16.70;99.90;;;;;;4997841;28;20253;-91
2022/08/27 08:20:20;;;;;;;2.57;1.10;;;16.60;99.90;;;;;;4997591;28;20667;-93
2022/08/27 08:23:12;;;;;;;2.70;1.13;;;16.70;99.90;;;;;;4996973;28;20214;-93
2022/08/27 08:25:46;;;;;;;2.93;1.17;;;16.50;99.90;;;;;;4998571;28;20210;-93
2022/08/27 08:28:19;;;;;;;3.50;1.17;;;16.60;99.90;;;;;;5001491;28;20237;-92
2022/08/27 08:30:52;;;;;;;3.17;1.37;;;16.50;99.90;;;;;;5001245;28;20234;-92
2022/08/27 08:33:23;;;;;;;1.97;0.90;;;16.50;99.90;;;;;;5000826;28;20217;-92
2022/08/27 08:35:55;;;;;;;2.47;1.10;;;16.50;99.90;;;;;;5001215;28;20210;-93
2022/08/27 08:38:27;;;;;;;2.77;1.33;;;16.40;99.90;;;;;;5002016;28;20214;-92
2022/08/27 08:41:04;;;;;;;1.87;0.90;;;16.40;99.90;;;;;;5001872;28;20202;-92
2022/08/27 08:43:39;;;;;;;3.13;1.30;;;16.40;99.90;;;;;;5000639;28;20216;-93
2022/08/27 08:46:21;;;;;;;1.27;1.00;;;16.40;99.90;;;;;;5001579;28;20216;-92
2022/08/27 08:48:58;;;;;;;1.87;1.20;;;16.40;99.90;;;;;;5001265;28;20285;-92
2022/08/27 08:51:39;;;;;;;1.60;0.90;;;16.40;99.90;;;;;;5000478;28;20319;-92
2022/08/27 08:54:16;;;;;;;1.60;1.10;;;16.40;99.90;;;;;;5001854;28;20206;-92
2022/08/27 08:56:57;;;;;;;3.27;1.20;;;16.40;99.90;;;;;;5001443;28;20248;-93
2022/08/27 08:59:33;;;;;;;1.57;1.03;;;16.40;99.90;;;;;;5000843;28;20214;-92
2022/08/27 09:02:08;;;;;;;2.20;1.00;;;16.50;99.90;;;;;;4999820;28;20222;-92
2022/08/27 09:04:44;;;;;;;2.97;1.10;;;16.40;99.90;;;;;;5000482;28;20221;-92
2022/08/27 09:07:21;;;;;;;2.07;1.20;;;16.50;99.90;;;;;;5000821;28;20208;-92
2022/08/27 09:10:00;;;;;;;1.83;1.43;;;16.50;99.90;;;;;;5001040;28;20694;-92
2022/08/27 09:12:34;;;;;;;2.90;1.37;;;16.40;99.90;;;;;;4999775;28;20229;-92
2022/08/27 09:15:13;;;;;;;2.73;1.60;;;16.40;99.90;;;;;;5008951;28;20233;-93
2022/08/27 09:17:46;;;;;;;3.77;1.50;;;16.30;99.90;;;;;;5020240;28;20205;-92
2022/08/27 09:20:22;;;;;;;3.53;1.60;;;16.30;99.90;;;;;;5020457;28;20628;-92
2022/08/27 09:23:12;;;;;;;3.57;1.50;;;16.30;99.90;;;;;;5022420;28;20213;-92
2022/08/27 09:25:44;;;;;;;2.17;1.20;;;16.20;99.90;;;;;;5020098;28;20263;-91
2022/08/27 09:31:13;;;;;;;2.57;1.30;;;16.00;99.90;;;;;;5022504;28;20291;-92
2022/08/27 09:33:45;;;;;;;3.10;1.23;;;16.10;99.90;;;;;;5022097;28;20297;-92
2022/08/27 09:36:28;;;;;;;2.50;1.50;;;16.20;99.90;;;;;;5022490;28;20634;-92
2022/08/27 09:39:02;;;;;;;4.73;1.17;;;16.30;99.90;;;;;;5022509;28;20209;-92
2022/08/27 09:41:44;;;;;;;3.90;1.10;;;16.30;99.90;;;;;;5022241;28;20228;-91
2022/08/27 09:44:21;;;;;;;2.17;1.20;;;16.30;99.90;;;;;;5024362;28;20288;-91
2022/08/27 09:46:58;;;;;;;3.70;1.20;;;16.10;99.90;;;;;;5023807;28;20268;-92
2022/08/27 09:49:33;;;;;;;3.70;1.47;;;16.00;99.90;;;;;;5021842;28;20221;-92
2022/08/27 09:52:06;;;;;;;5.30;1.63;;;16.00;99.90;;;;;;5021695;28;20232;-91
2022/08/27 09:54:45;;;;;;;2.77;1.23;;;15.90;99.90;;;;;;5019772;28;20217;-91
2022/08/27 09:57:32;;;;;;;3.53;1.30;;;16.10;99.90;;;;;;5021082;28;20206;-91
2022/08/27 10:00:14;;;;;;;1.77;1.10;;;16.20;99.90;;;;;;5020062;28;20217;-92
2022/08/27 10:02:54;;;;;;;3.80;1.20;;;16.00;99.90;;;;;;5018741;28;20213;-91
2022/08/27 10:05:29;;;;;;;2.20;1.13;;;16.00;99.90;;;;;;5019071;28;20258;-92
2022/08/27 10:08:03;;;;;;;1.80;1.10;;;15.80;99.90;;;;;;5019536;28;20205;-92
2022/08/27 10:10:46;;;;;;;3.57;1.30;;;15.70;99.90;;;;;;5019929;28;20209;-92
2022/08/27 10:13:20;;;;;;;1.83;1.20;;;15.50;99.90;;;;;;5020985;28;20575;-92
2022/08/27 10:16:21;;;;;;;2.10;1.27;;;15.50;99.90;;;;;;5017269;28;20221;-92
2022/08/27 10:19:00;;;;;;;3.40;1.47;;;15.50;99.90;;;;;;5002563;28;20234;-92
2022/08/27 10:21:42;;;;;;;1.97;1.40;;;15.60;99.90;;;;;;4999637;28;20218;-92
2022/08/27 10:24:22;;;;;;;2.30;1.23;;;15.60;99.90;;;;;;5006723;28;20421;-92
2022/08/27 10:27:15;;;;;;;4.20;1.40;;;15.70;99.90;;;;;;5005238;28;20198;-92
2022/08/27 10:29:51;;;;;;;2.30;1.20;;;15.70;99.90;;;;;;5006694;28;20224;-92
2022/08/27 10:32:39;;;;;;;1.27;0.93;;;15.80;99.90;;;;;;4999320;28;20853;-92
2022/08/27 10:35:17;;;;;;;3.77;1.10;;;15.70;99.90;;;;;;5002630;28;20214;-92
2022/08/27 10:37:59;;;;;;;4.13;1.10;;;15.80;99.90;;;;;;5002113;28;20210;-92
2022/08/27 10:40:36;;;;;;;1.77;1.00;;;15.80;99.90;;;;;;5002115;28;20198;-92
2022/08/27 10:43:26;;;;;;;4.60;1.00;;;15.80;99.90;;;;;;5001914;28;20236;-92
2022/08/27 10:46:06;;;;;;;1.93;1.40;;;15.90;99.90;;;;;;4999729;28;20213;-92
2022/08/27 10:48:46;;;;;;;2.10;0.80;;;15.90;99.90;;;;;;5013992;28;20214;-92
2022/08/27 10:51:24;;;;;;;2.93;0.80;;;15.70;99.90;;;;;;5017406;28;20190;-92
2022/08/27 10:54:04;;;;;;;2.60;1.00;;;15.50;99.90;;;;;;5017694;28;20201;-92
2022/08/27 10:56:42;;;;;;;2.57;1.20;;;15.50;99.90;;;;;;5017093;28;20230;-92
2022/08/27 10:59:26;;;;;;;2.53;0.90;;;15.40;99.90;;;;;;5017740;28;20197;-91
2022/08/27 11:02:07;;;;;;;2.87;1.13;;;15.50;99.90;;;;;;5017069;28;20196;-92
2022/08/27 11:04:46;;;;;;;1.30;1.00;;;15.50;99.90;;;;;;5017673;28;20225;-92
2022/08/27 11:07:24;;;;;;;1.27;1.00;;;15.40;99.90;;;;;;5016774;28;20198;-93
2022/08/27 11:09:59;;;;;;;2.53;1.40;;;15.30;99.90;;;;;;5014352;28;20217;-92
2022/08/27 11:12:36;;;;;;;2.10;1.37;;;15.30;99.90;;;;;;5015352;28;20225;-92
2022/08/27 11:15:11;;;;;;;1.70;1.40;;;15.30;99.90;;;;;;5017915;28;20186;-92
2022/08/27 11:17:48;;;;;;;0.93;0.93;;;15.30;99.90;;;;;;5017727;28;20187;-92
2022/08/27 11:20:26;;;;;;;3.83;1.60;;;15.20;99.90;;;;;;5016458;28;20205;-92
2022/08/27 11:23:01;;;;;;;2.17;1.40;;;15.10;99.90;;;;;;5000461;28;20646;-92
2022/08/27 11:25:45;;;;;;;3.27;1.50;;;15.00;99.90;;;;;;5003743;28;20206;-92
2022/08/27 11:28:18;;;;;;;2.87;1.40;;;15.00;99.90;;;;;;5000607;28;20213;-91
2022/08/27 11:31:07;;;;;;;3.27;1.77;;;14.90;99.90;;;;;;5000228;28;20681;-92
2022/08/27 11:33:45;;;;;;;4.37;1.70;;;14.90;99.90;;;;;;4999562;28;20333;-92
2022/08/27 11:36:51;;;;;;;4.23;1.77;;;14.70;99.90;;;;;;4999711;28;20228;-92
2022/08/27 11:39:48;;;;;;;2.93;1.90;;;14.70;99.90;;;;;;4988744;28;20205;-92
2022/08/27 11:42:34;;;;;;;4.17;1.87;;;14.70;99.90;;;;;;5003333;28;20224;-92
2022/08/27 11:45:10;;;;;;;5.83;1.97;;;14.70;99.90;;;;;;5001864;28;20220;-91
2022/08/27 11:47:51;;;;;;;5.93;2.07;;;14.60;99.90;;;;;;5001908;28;20205;-93
2022/08/27 11:50:25;;;;;;;3.77;1.97;;;14.50;99.90;;;;;;5001505;28;20287;-91
2022/08/27 11:53:00;;;;;;;2.00;1.73;;;14.50;99.90;;;;;;5003295;28;20253;-91
2022/08/27 11:55:37;;;;;;;3.30;1.93;;;14.60;99.90;;;;;;5003065;28;20246;-91
2022/08/27 11:58:12;;;;;;;4.43;2.43;;;14.60;99.90;;;;;;5000088;28;20655;-91
2022/08/27 12:00:46;;;;;;;3.20;1.93;;;14.60;99.90;;;;;;5002442;28;20305;-91
2022/08/27 12:03:27;;;;;;;6.47;1.87;;;14.50;99.90;;;;;;5000740;28;20268;-91
2022/08/27 12:06:18;;;;;;;3.00;1.77;;;14.60;99.90;;;;;;4999451;28;20203;-91
2022/08/27 12:08:51;;;;;;;3.30;1.83;;;14.60;99.90;;;;;;5001369;28;20233;-91
2022/08/27 12:11:56;;;;;;;2.97;1.63;;;14.50;99.90;;;;;;4998799;28;20214;-93
2022/08/27 12:14:42;;;;;;;6.00;2.47;;;14.40;99.90;;;;;;5000216;28;20206;-93
2022/08/27 12:17:24;;;;;;;5.83;2.93;;;14.30;99.90;;;;;;4999282;28;20613;-93
2022/08/27 12:20:09;;;;;;;4.73;3.03;;;14.20;99.90;;;;;;4999262;28;20206;-91
2022/08/27 12:25:56;;;;;;;6.13;2.80;;;14.20;99.90;;;;;;5011936;28;20223;-92
2022/08/27 12:28:29;;;;;;;5.70;3.10;;;14.10;99.90;;;;;;5021199;28;20221;-92
2022/08/27 12:31:03;;;;;;;9.23;3.47;;;14.00;99.90;;;;;;5030526;28;20202;-91
2022/08/27 12:33:40;;;;;;;7.43;3.73;;;14.00;99.90;;;;;;5027358;28;20285;-92
2022/08/27 12:36:17;;;;;;;10.80;3.60;;;14.00;99.90;;;;;;5029861;28;20205;-91
2022/08/27 12:38:58;;;;;;;10.43;3.80;;;14.00;99.90;;;;;;5026307;28;20216;-91
2022/08/27 12:41:36;;;;;;;9.13;3.93;;;14.00;99.90;;;;;;5020436;28;20240;-92
2022/08/27 12:44:23;;;;;;;10.33;4.37;;;14.00;99.90;;;;;;5036951;28;20236;-92
2022/08/27 12:47:02;;;;;;;12.43;4.23;;;14.00;99.90;;;;;;5001646;28;20214;-92
2022/08/27 12:49:37;;;;;;;9.87;3.90;;;14.00;99.90;;;;;;5000115;28;20234;-92
2022/08/27 12:52:21;;;;;;;11.43;3.90;;;13.90;99.90;;;;;;4999936;28;20214;-90
2022/08/27 12:55:03;;;;;;;12.90;4.57;;;14.00;99.90;;;;;;5002758;28;20209;-92
2022/08/27 12:57:43;;;;;;;20.03;5.47;;;14.00;99.90;;;;;;5005424;28;20233;-90
2022/08/27 13:00:18;;;;;;;9.17;3.87;;;13.90;99.90;;;;;;5006966;28;20202;-90
2022/08/27 13:03:20;;;;;;;10.87;4.63;;;13.90;99.90;;;;;;5007762;28;20206;-90
2022/08/27 13:05:55;;;;;;;8.97;3.80;;;13.90;99.90;;;;;;5002948;28;20218;-91
2022/08/27 13:08:30;;;;;;;14.40;4.50;;;13.90;99.90;;;;;;5000812;28;20221;-91
2022/08/27 13:11:11;;;;;;;11.53;4.27;;;13.90;99.90;;;;;;4999735;28;20206;-91
2022/08/27 13:13:43;;;;;;;14.40;4.20;;;13.90;99.90;;;;;;5002065;28;20603;-91
2022/08/27 13:16:19;;;;;;;15.17;4.50;;;13.90;99.90;;;;;;5023449;28;20221;-92
2022/08/27 13:18:51;;;;;;;10.40;4.03;;;13.90;99.90;;;;;;5025499;28;20304;-91
2022/08/27 13:21:26;;;;;;;13.10;4.17;;;13.80;99.90;;;;;;5021887;28;20205;-91
2022/08/27 13:24:00;;;;;;;13.17;4.30;;;13.80;99.90;;;;;;5022897;28;20214;-91
2022/08/27 13:26:35;;;;;;;18.37;4.77;;;13.80;99.90;;;;;;5020334;28;20213;-91
2022/08/27 13:29:09;;;;;;;11.03;3.70;;;13.90;99.90;;;;;;5020086;28;20216;-91
2022/08/27 13:31:42;;;;;;;11.47;3.93;;;13.70;99.90;;;;;;5018829;28;20210;-91
2022/08/27 13:34:19;;;;;;;14.00;4.70;;;13.80;99.90;;;;;;5020507;28;20291;-90
2022/08/27 13:36:59;;;;;;;14.27;4.43;;;13.80;99.90;;;;;;5020320;28;20232;-91
2022/08/27 13:39:30;;;;;;;7.90;4.27;;;13.80;99.90;;;;;;5020172;28;20208;-91
2022/08/27 13:42:03;;;;;;;12.43;4.07;;;13.70;99.90;;;;;;5019816;28;20209;-91
2022/08/27 13:44:37;;;;;;;12.20;4.43;;;13.70;99.90;;;;;;5015821;28;20210;-91
2022/08/27 13:47:17;;;;;;;10.43;4.37;;;13.80;99.90;;;;;;5001080;28;20269;-91
2022/08/27 13:49:49;;;;;;;11.23;4.43;;;13.80;99.90;;;;;;5000753;28;20214;-91
2022/08/27 13:52:28;;;;;;;16.80;4.53;;;13.80;99.90;;;;;;4999954;28;20207;-91
2022/08/27 13:55:04;;;;;;;15.57;3.73;;;13.90;99.90;;;;;;5000190;28;20217;-92
2022/08/27 13:57:44;;;;;;;17.10;3.70;;;13.90;99.90;;;;;;5000465;28;20214;-91
2022/08/27 14:00:17;;;;;;;11.43;4.47;;;13.90;99.90;;;;;;5000543;28;20202;-92
2022/08/27 14:02:50;;;;;;;12.80;4.33;;;14.00;99.90;;;;;;4999922;28;20217;-91
2022/08/27 14:05:32;;;;;;;14.57;5.13;;;14.00;99.90;;;;;;5000141;28;20312;-92
2022/08/27 14:08:13;;;;;;;11.53;3.83;;;13.90;99.90;;;;;;5000382;28;20210;-91
2022/08/27 14:10:48;;;;;;;14.50;4.80;;;13.90;99.90;;;;;;5000368;28;20210;-91
2022/08/27 14:13:24;;;;;;;14.83;5.07;;;13.90;99.90;;;;;;4998953;28;20246;-92
2022/08/27 14:15:58;;;;;;;11.47;4.40;;;13.90;99.90;;;;;;5000280;28;20202;-92
2022/08/27 14:18:33;;;;;;;12.80;4.47;;;13.80;99.90;;;;;;4999299;28;20226;-93
2022/08/27 14:21:25;;;;;;;18.63;5.37;;;13.90;99.90;;;;;;4998412;28;20211;-93
2022/08/27 14:23:56;;;;;;;16.80;5.33;;;13.90;99.90;;;;;;4998887;28;20210;-93
2022/08/27 14:26:28;;;;;;;11.83;4.43;;;13.80;99.90;;;;;;4999450;28;20311;-92
2022/08/27 14:28:59;;;;;;;11.17;4.50;;;13.90;99.90;;;;;;4999555;28;20276;-92
2022/08/27 14:31:31;;;;;;;12.23;5.17;;;13.80;99.90;;;;;;4998898;28;20240;-92
2022/08/27 14:34:05;;;;;;;9.73;4.33;;;14.00;99.90;;;;;;4999466;28;20318;-92
2022/08/27 14:36:39;;;;;;;10.27;4.60;;;13.90;99.90;;;;;;4997942;28;20297;-91
2022/08/27 14:39:13;;;;;;;12.17;4.40;;;13.90;99.90;;;;;;5000061;28;20554;-93
2022/08/27 14:41:45;;;;;;;14.83;4.50;;;13.80;99.90;;;;;;5013020;28;20275;-91
2022/08/27 14:44:16;;;;;;;10.97;4.43;;;13.90;99.90;;;;;;4998778;28;20217;-92
2022/08/27 14:46:48;;;;;;;14.73;4.90;;;13.90;99.90;;;;;;4998808;28;20218;-93
2022/08/27 14:49:28;;;;;;;12.40;5.13;;;13.80;99.90;;;;;;4999050;28;20560;-92
2022/08/27 14:51:59;;;;;;;16.60;5.70;;;13.80;99.90;;;;;;4998521;28;20220;-92
2022/08/27 14:54:34;;;;;;;12.27;4.90;;;13.80;99.90;;;;;;4998871;28;20233;-92
2022/08/27 14:57:07;;;;;;;14.57;4.93;;;13.80;99.90;;;;;;4999204;28;20218;-93
2022/08/27 15:05:13;;;;;;;17.00;5.13;;;13.70;99.90;;;;;;5037786;28;20304;-92
2022/08/27 15:07:44;;;;;;;11.67;4.80;;;13.80;99.90;;;;;;5038566;28;20290;-91
2022/08/27 15:10:16;;;;;;;13.70;5.00;;;13.70;99.90;;;;;;5039362;28;20249;-93
2022/08/27 15:12:48;;;;;;;12.80;6.03;;;13.90;99.90;;;;;;5038021;28;20677;-92
2022/08/27 15:15:19;;;;;;;11.30;4.60;;;14.00;99.90;;;;;;5038308;28;20302;-92
2022/08/27 15:17:52;;;;;;;12.00;4.73;;;14.10;99.90;;;;;;5042723;28;20216;-92
2022/08/27 15:20:27;;;;;;;10.80;4.47;;;14.20;99.90;;;;;;5039984;28;20212;-92
2022/08/27 15:23:03;;;;;;;11.10;4.40;;;14.10;99.90;;;;;;5037409;28;20619;-92
2022/08/27 15:25:37;;;;;;;9.67;4.33;;;14.10;99.90;;;;;;5052062;28;20211;-93
2022/08/27 15:28:46;;;;;;;10.77;4.37;;;14.10;99.90;;;;;;4862658;27;8277873;-92
2022/08/27 15:31:33;;;;;;;15.20;4.90;;;14.10;99.90;;;;;;5168881;27;20201;-92
2022/08/27 15:34:19;;;;;;;13.73;4.40;;;14.30;99.90;;;;;;5168442;27;20193;-92
2022/08/27 15:37:00;;;;;;;14.60;4.50;;;14.10;99.90;;;;;;5169388;27;20224;-92
2022/08/27 15:42:31;;;;;;;8.40;3.87;;;14.20;99.90;;;;;;5168585;27;20297;-92
2022/08/27 15:45:08;;;;;;;12.37;4.53;;;14.00;99.90;;;;;;5169172;27;20196;-92
2022/08/27 15:47:45;;;;;;;9.97;4.10;;;14.10;99.90;;;;;;5169766;27;20276;-92
2022/08/27 15:50:18;;;;;;;12.83;4.23;;;14.00;99.90;;;;;;5158695;27;20272;-92
2022/08/27 15:52:52;;;;;;;13.67;4.60;;;13.90;99.90;;;;;;5163490;27;20222;-91
2022/08/27 15:55:28;;;;;;;10.67;4.50;;;14.00;99.90;;;;;;5161455;27;20565;-92
2022/08/27 15:58:05;;;;;;;13.27;4.77;;;14.10;99.90;;;;;;5137053;28;20269;-91
2022/08/27 16:00:40;;;;;;;11.47;4.70;;;14.20;99.90;;;;;;5140965;27;20202;-92
2022/08/27 16:03:14;;;;;;;11.37;4.30;;;14.20;99.90;;;;;;5140887;27;20209;-92
2022/08/27 16:05:47;;;;;;;10.83;4.23;;;14.20;99.90;;;;;;5142155;28;20206;-91
2022/08/27 16:08:27;;;;;;;13.53;4.37;;;14.20;99.90;;;;;;5151841;28;20238;-91
2022/08/27 16:14:14;;;;;;;15.60;4.37;;;14.40;99.90;;;;;;5131410;28;20198;-91
2022/08/27 16:17:09;;;;;;;11.27;4.50;;;14.50;99.90;;;;;;5124784;28;20234;-91
2022/08/27 16:19:54;;;;;;;13.10;4.00;;;14.60;99.90;;;;;;5126063;28;20210;-91
2022/08/27 16:22:28;;;;;;;14.10;4.23;;;14.30;99.90;;;;;;5128628;27;20178;-92
2022/08/27 16:36:18;;;;;;;11.17;3.80;;;14.90;99.90;;;;;;5380565;22;20259;-90
2022/08/27 16:39:06;;;;;;;10.77;3.60;;;14.80;99.90;;;;;;5064266;28;20260;-92
2022/08/27 16:41:44;;;;;;;8.87;4.03;;;15.10;99.90;;;;;;5058843;28;20189;-92
2022/08/27 16:44:31;;;;;;;13.97;4.00;;;15.00;99.90;;;;;;5059781;28;20193;-91
2022/08/27 16:47:18;;;;;;;12.63;4.03;;;14.80;99.90;;;;;;5058056;28;20247;-91
2022/08/27 16:50:32;;;;;;;15.97;4.60;;;14.80;99.90;;;;;;5054916;28;20244;-91
2022/08/27 17:01:10;;;;;;;10.50;3.77;;;15.00;99.90;;;;;;5080952;28;20237;-92
2022/08/27 17:03:44;;;;;;;12.97;4.07;;;14.70;99.90;;;;;;5079190;28;20219;-91
2022/08/27 17:06:35;;;;;;;8.80;4.07;;;15.00;99.90;;;;;;5081371;28;20256;-92
2022/08/27 17:09:09;;;;;;;11.60;3.90;;;15.10;99.90;;;;;;5075159;28;20234;-92
2022/08/27 17:11:42;;;;;;;13.67;4.23;;;15.10;99.90;;;;;;5061727;28;20200;-93
2022/08/27 17:14:14;;;;;;;12.87;4.23;;;15.00;99.90;;;;;;5063331;28;20208;-92
2022/08/27 17:16:48;;;;;;;11.77;3.77;;;15.00;99.90;;;;;;5064131;28;20232;-92